Flight Track Log - Related Links

Times and Time Zones

All times are in EDT time to prevent confusion due to time zone crossing. See the SKW6492 flight status page for this flight to view local times or setup timezone preferences in your user account.

Time Position Orientation Groundspeed Altitude Reporting Facility
EDT Latitude Longitude Course Direction KTS MPH feet Rate Location/Type
Sat 09:34:09 PM 39.8833 -104.5833 346° North 185 213 7,100  Level Denver TRACON
Sat 09:35:09 PM 39.9000 -104.4833 78° East 268 308 8,900 1,950 Climbing Denver TRACON
Sat 09:36:09 PM 39.9333 -104.4000 62° Northeast 295 339 11,000 1,789 Climbing Denver TRACON
Sat 09:37:00 PM 40.2633 -104.8006 347° North  Level FlightAware Approximate
Sat 09:37:03 PM 40.0167 -104.3833 North 330 380 12,300  Level Denver TRACON
Sat 09:38:00 PM 40.3669 -104.8334 346° North  Level FlightAware Approximate
Sat 09:39:00 PM 40.4702 -104.8678 346° North  Level FlightAware Approximate
Sat 09:39:12 PM 40.1856 -104.5022 332° Northwest 339 390 16,900  Level Denver Center
Sat 09:40:13 PM 40.2617 -104.5742 324° Northwest 338 389 18,500 1,561 Climbing Denver Center
Sat 09:41:15 PM 40.3558 -104.6392 332° Northwest 365 420 20,100 1,415 Climbing Denver Center
Sat 09:42:16 PM 40.4489 -104.6856 339° North 361 415 21,400 1,279 Climbing Denver Center
Sat 09:43:17 PM 40.5464 -104.7325 340° North 373 429 22,700 1,268 Climbing Denver Center
Sat 09:44:19 PM 40.6431 -104.7822 339° North 373 429 24,000 1,122 Climbing Denver Center
Sat 09:45:20 PM 40.7375 -104.8289 339° North 381 438 25,000 984 Climbing Denver Center
Sat 09:46:21 PM 40.8383 -104.8750 341° North 378 435 26,000 1,073 Climbing Denver Center
Sat 09:47:23 PM 40.9589 -104.9342 340° North 392 451 27,200 1,024 Climbing Denver Center
Sat 09:48:24 PM 41.0492 -104.9792 339° North 395 455 28,100 984 Climbing Denver Center
Sat 09:49:25 PM 41.1644 -105.0347 340° North 394 453 29,200 1,033 Climbing Denver Center
Sat 09:50:26 PM 41.2603 -105.0850 338° Northwest 389 448 30,200 885 Climbing Denver Center
Sat 09:51:27 PM 41.3728 -105.1406 340° North 387 445 31,000 634 Climbing Denver Center
Sat 09:52:29 PM 41.4706 -105.1883 340° North 389 448 31,500 488 Climbing Denver Center
Sat 09:53:30 PM 41.5667 -105.2422 337° Northwest 391 450 32,000 246 Climbing Denver Center
Sat 09:54:31 PM 41.6614 -105.3411 322° Northwest 389 448 32,000  Level Denver Center
Sat 09:55:32 PM 41.7442 -105.4311 321° Northwest 396 456 32,000  Level Denver Center
Sat 09:56:33 PM 41.8272 -105.5197 322° Northwest 398 458 32,000  Level Denver Center
Sat 09:57:34 PM 41.9236 -105.6236 321° Northwest 398 458 32,000  Level Denver Center
Sat 09:58:35 PM 42.0061 -105.7150 321° Northwest 400 460 32,000  Level Denver Center
Sat 09:59:37 PM 42.0883 -105.8042 321° Northwest 396 456 32,000  Level Denver Center
Sat 10:00:38 PM 42.1819 -105.9086 320° Northwest 393 452 32,000  Level Denver Center
Sat 10:01:39 PM 42.2636 -105.9986 321° Northwest 395 455 32,000  Level Denver Center
Sat 10:02:40 PM 42.3447 -106.0897 320° Northwest 395 455 32,000  Level Denver Center
Sat 10:03:41 PM 42.4406 -106.1953 321° Northwest 397 457 32,000  Level Denver Center
Sat 10:04:42 PM 42.5219 -106.2875 320° Northwest 397 457 32,000  Level Denver Center
Sat 10:05:43 PM 42.6172 -106.3933 321° Northwest 396 456 32,000  Level Denver Center
Sat 10:06:44 PM 42.6975 -106.4856 320° Northwest 395 455 32,000  Level Denver Center
Sat 10:07:45 PM 42.7800 -106.5786 320° Northwest 400 460 32,000  Level Denver Center
Sat 10:08:58 PM 42.8761 -106.6875 320° Northwest 402 463 32,000  Level Denver Center
Sat 10:09:59 PM 42.9714 -106.7969 320° Northwest 402 463 32,000  Level Denver Center
Sat 10:11:00 PM 43.0683 -106.9067 320° Northwest 404 465 32,000  Level Denver Center
Sat 10:12:01 PM 43.1536 -107.0053 320° Northwest 399 459 32,000  Level Denver Center
Sat 10:12:38 PM 43.1942 -107.0550 318° Northwest 405 466 32,000  Level Salt Lake Center
Sat 10:13:39 PM 43.2911 -107.1664 320° Northwest 407 468 32,000  Level Salt Lake Center
Sat 10:14:03 PM 43.3189 -107.1972 321° Northwest 407 468 32,000  Level Denver Center
Sat 10:15:04 PM 43.4164 -107.3100 320° Northwest 409 471 32,000  Level Denver Center
Sat 10:15:41 PM 43.4581 -107.3611 318° Northwest 415 478 32,000  Level Salt Lake Center
Sat 10:16:42 PM 43.5558 -107.4756 320° Northwest 414 476 32,000  Level Salt Lake Center
Sat 10:17:43 PM 43.6414 -107.5747 320° Northwest 418 481 32,000  Level Salt Lake Center
Sat 10:18:44 PM 43.7389 -107.6933 319° Northwest 419 482 32,000  Level Salt Lake Center
Sat 10:19:45 PM 43.8247 -107.7956 319° Northwest 422 486 32,000 -98 Level Salt Lake Center
Sat 10:20:46 PM 43.9117 -107.8972 320° Northwest 425 489 31,800 -1,525 Descending Salt Lake Center
Sat 10:21:47 PM 44.0083 -108.0181 318° Northwest 420 483 28,900 -2,803 Descending Salt Lake Center
Sat 10:22:48 PM 44.0828 -108.1278 313° West 409 471 26,100 -2,803 Descending Salt Lake Center
Sat 10:23:49 PM 44.1672 -108.2183 322° Northwest 400 460 23,200 -3,049 Descending Salt Lake Center
Sat 10:24:50 PM 44.2628 -108.3231 322° Northwest 393 452 19,900 -2,975 Descending Salt Lake Center
Sat 10:25:50 PM 44.3431 -108.4108 322° Northwest 387 445 17,200 -2,727 Descending Salt Lake Center
Sat 10:26:51 PM 44.4206 -108.4969 322° Northwest 380 437 14,400 -3,049 Descending Salt Lake Center
Sat 10:27:52 PM 44.5072 -108.5922 322° Northwest 367 422 11,000 -2,164 Descending Salt Lake Center
Sat 10:28:53 PM 44.5631 -108.6572 320° Northwest 308 354 10,000 -885 Descending Salt Lake Center
Sat 10:29:54 PM 44.6131 -108.7114 322° Northwest 254 292 9,200 -934 Descending Salt Lake Center
Sat 10:30:55 PM 44.6461 -108.7881 301° West 226 260 8,100 -1,082 Descending Salt Lake Center

Login

Don't have an account? Register now (free) for customized features, flight alerts, and more!